createdAt,value
2023-02-24T00:00:32.056Z,36.30
2023-02-24T00:03:13.656Z,33.60
2023-02-24T00:05:49.959Z,31.60
2023-02-24T00:08:18.378Z,34.30
2023-02-24T00:10:47.835Z,34.90
2023-02-24T00:13:22.327Z,30.70
2023-02-24T00:16:02.861Z,31.80
2023-02-24T00:18:32.722Z,30.50
2023-02-24T00:21:08.355Z,29.80
2023-02-24T00:23:38.349Z,31.20
2023-02-24T00:26:10.345Z,28.10
2023-02-24T00:28:39.114Z,27.00
2023-02-24T00:31:14.475Z,27.60
2023-02-24T00:33:45.801Z,27.00
2023-02-24T00:36:23.995Z,29.00
2023-02-24T00:38:56.273Z,26.20
2023-02-24T00:41:31.494Z,29.60
2023-02-24T00:44:07.412Z,27.60
2023-02-24T00:46:42.546Z,28.40
2023-02-24T00:49:17.649Z,30.30
2023-02-24T00:51:49.318Z,60.90
2023-02-24T00:54:17.682Z,50.60
2023-02-24T00:56:48.573Z,32.70
2023-02-24T00:59:23.037Z,29.10
2023-02-24T01:01:52.328Z,32.50
2023-02-24T01:04:21.922Z,47.60
2023-02-24T01:07:00.132Z,43.00
2023-02-24T01:09:32.139Z,40.70
2023-02-24T01:12:19.213Z,40.10
2023-02-24T01:14:51.297Z,38.90
2023-02-24T01:17:21.766Z,47.00
2023-02-24T01:19:50.455Z,35.30
2023-02-24T01:22:21.351Z,38.10
2023-02-24T01:24:49.815Z,50.00
2023-02-24T01:27:19.389Z,54.10
2023-02-24T01:29:48.941Z,44.70
2023-02-24T01:32:21.494Z,42.90
2023-02-24T01:34:53.344Z,38.00
2023-02-24T01:37:21.976Z,40.10
2023-02-24T01:39:50.740Z,36.10
2023-02-24T01:42:22.312Z,30.70
2023-02-24T01:44:51.973Z,32.10
2023-02-24T01:47:21.484Z,31.50
2023-02-24T01:49:54.764Z,32.10
2023-02-24T01:52:37.810Z,32.60
2023-02-24T01:55:24.570Z,32.80
2023-02-24T01:57:54.109Z,37.00
2023-02-24T02:00:38.334Z,36.10
2023-02-24T02:03:25.593Z,35.20
2023-02-24T02:06:01.334Z,35.20
2023-02-24T02:08:30.651Z,42.00
2023-02-24T02:11:06.419Z,31.60
2023-02-24T02:13:38.071Z,30.10
2023-02-24T02:16:21.065Z,31.10
2023-02-24T02:19:36.202Z,41.30
2023-02-24T02:22:23.549Z,30.30
2023-02-24T02:25:01.582Z,28.70
2023-02-24T02:28:04.334Z,28.30
2023-02-24T02:31:04.168Z,28.70
2023-02-24T02:34:02.961Z,28.50
2023-02-24T02:37:14.920Z,53.40
2023-02-24T02:40:37.669Z,45.00
2023-02-24T02:43:25.916Z,31.20
2023-02-24T02:46:14.919Z,30.30
2023-02-24T02:48:58.195Z,30.80
2023-02-24T02:51:38.862Z,31.00
2023-02-24T02:54:22.465Z,29.70
2023-02-24T02:56:59.602Z,29.60
2023-02-24T02:59:31.870Z,29.90
2023-02-24T03:02:11.654Z,34.40
2023-02-24T03:04:46.718Z,33.10
2023-02-24T03:07:17.857Z,33.30
2023-02-24T03:09:56.307Z,32.90
2023-02-24T03:12:30.622Z,30.70
2023-02-24T03:15:04.586Z,32.00
2023-02-24T03:17:40.893Z,31.60
2023-02-24T03:20:29.352Z,29.40
2023-02-24T03:23:25.733Z,34.00
2023-02-24T03:26:06.143Z,31.10
2023-02-24T03:28:48.820Z,30.40
2023-02-24T03:31:27.764Z,33.10
2023-02-24T03:34:15.889Z,31.50
2023-02-24T03:36:44.551Z,31.10
2023-02-24T03:39:13.273Z,33.80
2023-02-24T03:42:01.267Z,32.50
2023-02-24T03:44:30.505Z,33.00
2023-02-24T03:46:58.904Z,33.90
2023-02-24T03:49:28.216Z,34.30
2023-02-24T03:52:29.137Z,34.40
2023-02-24T03:55:28.499Z,33.40
2023-02-24T03:58:43.034Z,34.10
2023-02-24T04:01:42.082Z,32.20
2023-02-24T04:04:27.428Z,32.60
2023-02-24T04:07:12.659Z,36.10
2023-02-24T04:09:57.185Z,33.70
2023-02-24T04:12:52.329Z,33.40
2023-02-24T04:15:32.398Z,33.70
2023-02-24T04:18:08.041Z,32.30
2023-02-24T04:20:37.226Z,32.90
2023-02-24T04:23:17.001Z,33.20
2023-02-24T04:25:49.462Z,34.20
2023-02-24T04:28:21.242Z,35.50
2023-02-24T04:31:05.809Z,33.60
2023-02-24T04:33:34.363Z,35.90
2023-02-24T04:36:02.853Z,37.50
2023-02-24T04:38:31.500Z,35.60
2023-02-24T04:40:59.791Z,36.60
2023-02-24T04:43:29.458Z,37.90
2023-02-24T04:45:57.859Z,35.60
2023-02-24T04:48:26.201Z,35.20
2023-02-24T04:50:55.279Z,36.10
2023-02-24T04:53:27.255Z,34.30
2023-02-24T04:55:56.297Z,33.40
2023-02-24T04:58:29.663Z,35.40
2023-02-24T05:00:57.984Z,35.20
2023-02-24T05:03:30.078Z,38.30
2023-02-24T05:06:00.327Z,35.40
2023-02-24T05:08:30.933Z,36.50
2023-02-24T05:11:03.902Z,35.40
2023-02-24T05:13:33.830Z,35.30
2023-02-24T05:16:10.016Z,36.40
2023-02-24T05:18:38.792Z,35.20
2023-02-24T05:21:32.862Z,37.90
2023-02-24T05:24:06.533Z,36.10
2023-02-24T05:26:38.087Z,36.60
2023-02-24T05:29:07.288Z,36.10
2023-02-24T05:31:37.092Z,33.80
2023-02-24T05:34:08.136Z,37.10
2023-02-24T05:36:40.615Z,36.00
2023-02-24T05:39:12.280Z,36.50
2023-02-24T05:41:42.981Z,34.80
2023-02-24T05:44:16.096Z,33.20
2023-02-24T05:46:46.635Z,35.20
2023-02-24T05:49:26.912Z,34.60
2023-02-24T05:52:00.097Z,36.80
2023-02-24T05:54:44.130Z,33.40
2023-02-24T05:57:17.342Z,36.50
2023-02-24T05:59:46.042Z,34.60
2023-02-24T06:02:18.013Z,36.30
2023-02-24T06:04:53.905Z,35.50
2023-02-24T06:07:34.554Z,35.80
2023-02-24T06:10:07.053Z,33.70
2023-02-24T06:12:36.088Z,34.40
2023-02-24T06:15:07.746Z,31.50
2023-02-24T06:17:36.446Z,33.30
2023-02-24T06:20:15.707Z,34.00
2023-02-24T06:22:44.303Z,33.00
2023-02-24T06:25:12.712Z,32.40
2023-02-24T06:27:41.095Z,33.20
2023-02-24T06:30:10.731Z,29.90
2023-02-24T06:32:39.562Z,33.50
2023-02-24T06:35:09.238Z,34.60
2023-02-24T06:37:39.469Z,30.80
2023-02-24T06:40:17.809Z,31.50
2023-02-24T06:42:54.045Z,30.10
2023-02-24T06:45:24.422Z,31.40
2023-02-24T06:47:53.321Z,31.20
2023-02-24T06:50:21.900Z,33.60
2023-02-24T06:52:50.643Z,30.10
2023-02-24T06:55:28.384Z,26.20
2023-02-24T06:58:04.296Z,23.00
2023-02-24T07:00:40.785Z,21.10
2023-02-24T07:03:16.242Z,19.90
2023-02-24T07:08:27.200Z,17.50
2023-02-24T07:10:58.170Z,18.40
2023-02-24T07:13:30.858Z,17.30
2023-02-24T07:16:07.435Z,17.70
2023-02-24T07:18:41.757Z,16.60
2023-02-24T07:21:11.777Z,19.30
2023-02-24T07:23:41.841Z,19.90
2023-02-24T07:26:15.714Z,20.30
2023-02-24T07:28:47.008Z,19.50
2023-02-24T07:31:19.666Z,20.10
2023-02-24T07:33:48.793Z,21.00
2023-02-24T07:36:23.095Z,20.20
2023-02-24T07:38:53.988Z,20.00
2023-02-24T07:41:26.241Z,19.80
2023-02-24T07:43:55.445Z,22.70
2023-02-24T07:46:28.115Z,22.30
2023-02-24T07:48:59.325Z,21.00
2023-02-24T07:51:29.442Z,22.70
2023-02-24T07:54:00.494Z,22.60
2023-02-24T07:56:31.123Z,21.90
2023-02-24T07:59:07.918Z,23.70
2023-02-24T08:01:40.607Z,22.20
2023-02-24T08:04:12.761Z,22.40
2023-02-24T08:06:48.127Z,22.60
2023-02-24T08:09:21.038Z,21.40
2023-02-24T08:11:55.386Z,21.10
2023-02-24T08:14:35.465Z,21.00
2023-02-24T08:17:05.521Z,21.60
2023-02-24T08:19:39.830Z,20.30
2023-02-24T08:22:20.675Z,20.40
2023-02-24T08:25:05.869Z,18.30
2023-02-24T08:27:43.064Z,19.40
2023-02-24T08:30:23.556Z,21.20
2023-02-24T08:33:00.062Z,20.30
2023-02-24T08:35:37.545Z,21.50
2023-02-24T08:38:14.512Z,20.20
2023-02-24T08:40:50.932Z,18.10
2023-02-24T08:43:40.958Z,19.80
2023-02-24T08:46:18.621Z,19.10
2023-02-24T08:48:55.463Z,18.70
2023-02-24T08:51:34.947Z,18.80
2023-02-24T08:54:15.379Z,21.50
2023-02-24T08:56:55.966Z,20.70
2023-02-24T08:59:38.016Z,20.30
2023-02-24T09:02:23.067Z,18.60
2023-02-24T09:05:03.785Z,18.40
2023-02-24T09:07:40.674Z,17.70
2023-02-24T09:10:18.206Z,17.10
2023-02-24T09:12:49.117Z,19.10
2023-02-24T09:15:17.856Z,17.70
2023-02-24T09:17:46.334Z,16.10
2023-02-24T09:20:39.132Z,15.20
2023-02-24T09:23:08.668Z,13.70
2023-02-24T09:25:44.747Z,15.20
2023-02-24T09:28:19.581Z,11.70
2023-02-24T09:31:04.855Z,14.40
2023-02-24T09:33:41.260Z,14.20
2023-02-24T09:36:28.387Z,13.10
2023-02-24T09:38:59.629Z,12.20
2023-02-24T09:42:07.608Z,13.00
2023-02-24T09:44:39.361Z,14.10
2023-02-24T09:47:51.305Z,12.90
2023-02-24T09:50:40.269Z,14.40
2023-02-24T09:53:19.999Z,15.00
2023-02-24T09:56:05.346Z,13.50
2023-02-24T09:58:47.980Z,13.00
2023-02-24T10:01:50.753Z,12.90
2023-02-24T10:04:49.271Z,14.60
2023-02-24T10:07:38.426Z,13.20
2023-02-24T10:10:36.358Z,11.80
2023-02-24T10:13:30.397Z,13.60
2023-02-24T10:16:06.981Z,12.30
2023-02-24T10:19:17.540Z,11.40
2023-02-24T10:22:02.500Z,12.70
2023-02-24T10:24:47.659Z,13.00
2023-02-24T10:27:27.221Z,11.50
2023-02-24T10:30:28.041Z,13.10
2023-02-24T10:33:02.596Z,13.00
2023-02-24T10:35:34.163Z,12.50
2023-02-24T10:38:07.135Z,11.70
2023-02-24T10:40:57.028Z,10.30
2023-02-24T10:43:30.552Z,9.50
2023-02-24T10:46:17.234Z,10.70
2023-02-24T10:49:00.652Z,11.00
2023-02-24T10:51:42.384Z,11.50
2023-02-24T10:54:48.373Z,11.50
2023-02-24T10:57:37.365Z,11.60
2023-02-24T11:00:31.133Z,10.60
2023-02-24T11:03:10.650Z,11.10
2023-02-24T11:06:04.697Z,8.90
2023-02-24T11:08:39.740Z,11.40
2023-02-24T11:11:26.099Z,11.10
2023-02-24T11:14:30.384Z,10.30
2023-02-24T11:17:17.520Z,11.10
2023-02-24T11:20:01.684Z,11.10
2023-02-24T11:22:39.538Z,10.80
2023-02-24T11:25:39.624Z,11.40
2023-02-24T11:28:55.807Z,8.10
2023-02-24T11:31:53.607Z,8.20
2023-02-24T11:34:39.227Z,7.60
2023-02-24T11:37:59.081Z,8.50
2023-02-24T11:40:36.586Z,9.30
2023-02-24T11:43:14.140Z,8.20
2023-02-24T11:45:53.473Z,9.90
2023-02-24T11:48:26.730Z,9.50
2023-02-24T11:51:20.745Z,9.40
2023-02-24T11:53:58.322Z,10.90
2023-02-24T11:56:44.213Z,11.20
2023-02-24T11:59:38.342Z,9.40
2023-02-24T12:02:35.756Z,8.40
2023-02-24T12:05:17.000Z,9.00
2023-02-24T12:07:59.229Z,8.30
2023-02-24T12:10:32.283Z,10.20
2023-02-24T12:13:19.384Z,7.80
2023-02-24T12:16:03.153Z,6.90
2023-02-24T12:18:43.617Z,6.40
2023-02-24T12:21:32.314Z,7.00
2023-02-24T12:24:02.245Z,6.70
2023-02-24T12:26:48.228Z,6.70
2023-02-24T12:29:49.906Z,6.00
2023-02-24T12:32:47.321Z,5.30
2023-02-24T12:35:33.006Z,6.10
2023-02-24T12:38:34.705Z,6.50
2023-02-24T12:41:14.755Z,6.70
2023-02-24T12:43:55.482Z,5.80
2023-02-24T12:46:38.448Z,4.90
2023-02-24T12:49:42.831Z,6.70
2023-02-24T12:52:48.109Z,6.00
2023-02-24T12:55:52.111Z,5.70
2023-02-24T12:58:26.637Z,6.90
2023-02-24T13:01:09.106Z,5.10
2023-02-24T13:04:06.942Z,6.30
2023-02-24T13:07:01.205Z,6.70
2023-02-24T13:09:51.329Z,5.50
2023-02-24T13:12:49.050Z,6.40
2023-02-24T13:15:27.325Z,5.50
2023-02-24T13:17:58.494Z,6.20
2023-02-24T13:20:38.731Z,6.00
2023-02-24T13:23:22.004Z,6.00
2023-02-24T13:25:54.041Z,6.20
2023-02-24T13:28:36.413Z,6.10
2023-02-24T13:31:13.592Z,4.90
2023-02-24T13:33:44.828Z,5.50
2023-02-24T13:36:17.037Z,5.70
2023-02-24T13:38:49.442Z,5.80
2023-02-24T13:41:40.926Z,5.10
2023-02-24T13:44:18.809Z,5.20
2023-02-24T13:47:14.610Z,6.40
2023-02-24T13:50:39.296Z,5.70
2023-02-24T13:53:23.849Z,14.90
2023-02-24T13:56:16.538Z,14.00
2023-02-24T13:59:11.297Z,6.20
2023-02-24T14:01:58.076Z,5.00
2023-02-24T14:04:36.192Z,6.50
2023-02-24T14:07:11.708Z,5.30
2023-02-24T14:09:46.722Z,5.50
2023-02-24T14:12:28.943Z,4.90
2023-02-24T14:14:58.029Z,4.80
2023-02-24T14:17:35.880Z,4.90
2023-02-24T14:20:05.206Z,5.30
2023-02-24T14:22:34.742Z,6.30
2023-02-24T14:25:09.313Z,4.80
2023-02-24T14:27:39.021Z,23.80
2023-02-24T14:30:18.975Z,15.90
2023-02-24T14:32:48.330Z,19.90
2023-02-24T14:35:49.430Z,21.80
2023-02-24T14:38:39.331Z,10.60
2023-02-24T14:41:24.693Z,16.20
2023-02-24T14:43:53.899Z,18.80
2023-02-24T14:46:24.019Z,6.70
2023-02-24T14:48:56.211Z,7.60
2023-02-24T14:51:35.510Z,6.80
2023-02-24T14:54:08.121Z,5.60
2023-02-24T14:56:37.067Z,6.00
2023-02-24T14:59:33.755Z,11.60
2023-02-24T15:02:05.534Z,6.20
2023-02-24T15:04:39.422Z,5.10
2023-02-24T15:07:17.776Z,5.20
2023-02-24T15:09:48.351Z,9.70
2023-02-24T15:12:32.184Z,18.30
2023-02-24T15:15:13.574Z,8.00
2023-02-24T15:17:42.019Z,5.70
2023-02-24T15:20:35.406Z,5.20
2023-02-24T15:23:04.408Z,8.70
2023-02-24T15:25:46.258Z,6.80
2023-02-24T15:28:34.200Z,5.60
2023-02-24T15:31:16.170Z,4.40
2023-02-24T15:33:58.119Z,5.10
2023-02-24T15:36:36.749Z,5.50
2023-02-24T15:39:17.065Z,6.80
2023-02-24T15:41:48.304Z,6.50
2023-02-24T15:44:31.842Z,23.50
2023-02-24T15:47:21.418Z,14.80
2023-02-24T15:49:50.005Z,11.00
2023-02-24T15:52:24.358Z,10.60
2023-02-24T15:54:54.347Z,11.40
2023-02-24T15:57:23.534Z,8.90
2023-02-24T15:59:52.272Z,7.40
2023-02-24T16:02:23.625Z,8.00
2023-02-24T16:04:52.430Z,16.20
2023-02-24T16:07:26.749Z,21.00
2023-02-24T16:09:57.747Z,26.50
2023-02-24T16:12:34.146Z,24.90
2023-02-24T16:15:06.820Z,24.50
2023-02-24T16:17:41.436Z,103.00
2023-02-24T16:20:18.689Z,65.40
2023-02-24T16:22:47.158Z,27.90
2023-02-24T16:25:17.012Z,26.80
2023-02-24T16:27:45.564Z,26.90
2023-02-24T16:30:22.127Z,24.70
2023-02-24T16:32:51.576Z,22.80
2023-02-24T16:35:20.271Z,33.80
2023-02-24T16:37:49.083Z,31.60
2023-02-24T16:40:30.668Z,45.90
2023-02-24T16:42:59.256Z,31.50
2023-02-24T16:45:30.704Z,25.20
2023-02-24T16:48:02.560Z,26.00
2023-02-24T16:50:40.901Z,39.10
2023-02-24T16:53:18.907Z,29.70
2023-02-24T16:55:47.618Z,31.20
2023-02-24T16:58:16.357Z,32.90
2023-02-24T17:00:49.842Z,28.10
2023-02-24T17:03:25.109Z,36.70
2023-02-24T17:05:54.595Z,36.90
2023-02-24T17:08:23.611Z,31.40
2023-02-24T17:10:52.682Z,38.40
2023-02-24T17:13:22.087Z,34.80
2023-02-24T17:15:57.309Z,39.70
2023-02-24T17:20:55.059Z,14.70
2023-02-24T17:23:23.881Z,12.30
2023-02-24T17:26:00.204Z,8.00
2023-02-24T17:28:28.741Z,9.80
2023-02-24T17:30:57.572Z,14.50
2023-02-24T17:33:25.991Z,12.30
2023-02-24T17:35:54.341Z,17.90
2023-02-24T17:38:24.174Z,15.10
2023-02-24T17:40:52.760Z,8.80
2023-02-24T17:43:21.163Z,12.00
2023-02-24T17:45:51.698Z,10.20
2023-02-24T17:48:21.551Z,8.80
2023-02-24T17:50:50.004Z,10.60
2023-02-24T17:53:18.295Z,10.50
2023-02-24T17:56:01.840Z,8.50
2023-02-24T17:58:32.333Z,9.90
2023-02-24T18:01:05.690Z,13.80
2023-02-24T18:03:36.135Z,11.10
2023-02-24T18:06:10.215Z,9.60
2023-02-24T18:08:39.745Z,9.60
2023-02-24T18:11:16.099Z,8.10
2023-02-24T18:13:45.178Z,9.00
2023-02-24T18:16:15.343Z,10.60
2023-02-24T18:18:43.887Z,15.70
2023-02-24T18:21:12.572Z,13.60
2023-02-24T18:23:41.034Z,14.30
2023-02-24T18:26:12.197Z,14.20
2023-02-24T18:28:40.981Z,15.80
2023-02-24T18:31:12.716Z,23.70
2023-02-24T18:33:41.770Z,14.20
2023-02-24T18:36:11.180Z,16.20
2023-02-24T18:38:40.024Z,11.30
2023-02-24T18:41:15.725Z,12.20
2023-02-24T18:43:47.986Z,13.20
2023-02-24T18:46:18.578Z,14.00
2023-02-24T18:48:48.133Z,14.20
2023-02-24T18:51:22.026Z,11.90
2023-02-24T18:53:52.814Z,12.50
2023-02-24T18:56:25.699Z,17.00
2023-02-24T18:58:56.926Z,13.30
2023-02-24T19:01:41.299Z,12.70
2023-02-24T19:04:09.732Z,12.40
2023-02-24T19:06:38.083Z,11.10
2023-02-24T19:09:10.492Z,16.30
2023-02-24T19:11:40.873Z,16.10
2023-02-24T19:14:12.172Z,16.50
2023-02-24T19:16:41.116Z,17.80
2023-02-24T19:19:14.514Z,14.70
2023-02-24T19:21:45.552Z,16.90
2023-02-24T19:24:14.554Z,13.20
2023-02-24T19:26:44.483Z,14.30
2023-02-24T19:29:13.794Z,12.70
2023-02-24T19:31:42.693Z,10.50
2023-02-24T19:34:15.270Z,9.70
2023-02-24T19:36:43.668Z,8.70
2023-02-24T19:39:15.312Z,7.60
2023-02-24T19:41:44.356Z,6.70
2023-02-24T19:44:14.164Z,5.90
2023-02-24T19:46:43.135Z,7.90
2023-02-24T19:49:11.522Z,8.00
2023-02-24T19:51:40.151Z,6.60
2023-02-24T19:54:12.356Z,6.60
2023-02-24T19:56:40.769Z,6.30
2023-02-24T19:59:10.786Z,6.30
2023-02-24T20:01:39.314Z,5.90
2023-02-24T20:04:08.378Z,5.70
2023-02-24T20:06:43.472Z,6.00
2023-02-24T20:09:22.226Z,6.70
2023-02-24T20:11:51.449Z,6.30
2023-02-24T20:14:20.647Z,6.70
2023-02-24T20:16:49.152Z,6.80
2023-02-24T20:19:18.135Z,6.70
2023-02-24T20:21:47.596Z,7.40
2023-02-24T20:24:17.994Z,7.50
2023-02-24T20:26:49.668Z,9.20
2023-02-24T20:29:21.106Z,8.90
2023-02-24T20:31:49.892Z,8.30
2023-02-24T20:34:18.472Z,8.40
2023-02-24T20:36:46.880Z,7.30
2023-02-24T20:39:15.557Z,7.60
2023-02-24T20:41:44.185Z,7.00
2023-02-24T20:44:12.902Z,7.40
2023-02-24T20:46:41.493Z,7.90
2023-02-24T20:49:14.686Z,7.80
2023-02-24T20:51:44.014Z,7.60
2023-02-24T20:54:13.725Z,8.80
2023-02-24T20:56:45.470Z,12.70
2023-02-24T20:59:21.979Z,8.80
2023-02-24T21:01:51.065Z,7.40
2023-02-24T21:04:21.662Z,7.60
2023-02-24T21:06:51.979Z,9.10
2023-02-24T21:09:20.441Z,9.70
2023-02-24T21:11:48.847Z,11.90
2023-02-24T21:14:17.645Z,12.20
2023-02-24T21:16:46.306Z,10.50
2023-02-24T21:19:15.067Z,12.40
2023-02-24T21:21:43.445Z,10.10
2023-02-24T21:24:12.087Z,11.20
2023-02-24T21:26:40.531Z,11.30
2023-02-24T21:29:08.890Z,10.10
2023-02-24T21:31:37.468Z,10.40
2023-02-24T21:34:06.323Z,9.40
2023-02-24T21:36:36.083Z,10.00
2023-02-24T21:39:06.361Z,7.90
2023-02-24T21:41:37.510Z,11.00
2023-02-24T21:44:06.019Z,10.20
2023-02-24T21:46:34.515Z,10.20
2023-02-24T21:49:03.280Z,10.20
2023-02-24T21:51:31.673Z,11.30
2023-02-24T21:54:00.865Z,10.20
2023-02-24T21:56:30.448Z,11.20
2023-02-24T21:59:03.002Z,10.60
2023-02-24T22:01:50.022Z,12.20
2023-02-24T22:04:19.225Z,11.50
2023-02-24T22:06:50.340Z,11.90
2023-02-24T22:09:19.855Z,12.90
2023-02-24T22:11:50.134Z,13.30
2023-02-24T22:14:19.074Z,10.40
2023-02-24T22:16:47.823Z,12.00
2023-02-24T22:19:16.426Z,11.30
2023-02-24T22:21:45.156Z,11.30
2023-02-24T22:24:16.277Z,10.60
2023-02-24T22:26:45.110Z,12.20
2023-02-24T22:29:13.708Z,11.20
2023-02-24T22:31:43.758Z,9.80
2023-02-24T22:34:14.342Z,12.30
2023-02-24T22:36:42.922Z,12.10
2023-02-24T22:39:16.549Z,11.10
2023-02-24T22:41:46.817Z,10.80
2023-02-24T22:44:19.140Z,12.20
2023-02-24T22:46:48.364Z,11.70
2023-02-24T22:49:17.210Z,12.50
2023-02-24T22:51:45.832Z,9.50
2023-02-24T22:54:14.774Z,9.30
2023-02-24T22:56:43.438Z,9.60
2023-02-24T22:59:12.335Z,8.40
2023-02-24T23:01:42.671Z,9.10
2023-02-24T23:04:18.115Z,9.40
2023-02-24T23:09:19.775Z,6.90
2023-02-24T23:11:48.462Z,6.70
2023-02-24T23:14:17.482Z,7.10
2023-02-24T23:16:53.396Z,6.10
2023-02-24T23:19:22.927Z,5.30
2023-02-24T23:21:53.614Z,4.60
2023-02-24T23:24:22.303Z,5.30
2023-02-24T23:26:54.239Z,5.30
2023-02-24T23:29:24.409Z,5.00
2023-02-24T23:31:53.815Z,5.10
2023-02-24T23:34:22.277Z,4.70
2023-02-24T23:36:50.783Z,3.70
2023-02-24T23:39:23.866Z,4.00
2023-02-24T23:41:57.501Z,4.10
2023-02-24T23:44:26.312Z,4.00
2023-02-24T23:46:54.953Z,4.00
2023-02-24T23:49:23.997Z,4.20
2023-02-24T23:51:52.348Z,4.00
2023-02-24T23:54:20.761Z,4.50
2023-02-24T23:56:49.163Z,3.00
2023-02-24T23:59:17.568Z,3.40
